Time;durP1;ratioP1;P1;durP2;ratioP2;P2;SDS_P1;SDS_P2;PMS_P1;PMS_P2;Temp;Humidity;BMP_temperature;BMP_pressure;BME280_temperature;BME280_humidity;BME280_pressure;Samples;Min_cycle;Max_cycle;Signal;HPM_P1;HPM_P2
2022/02/21 00:00:28;;;;;;;13.05;11.12;;;;;;;1.04;100.00;98547.41;1610231;87;20980;-69
2022/02/21 00:02:55;;;;;;;12.95;9.15;;;;;;;1.04;100.00;98549.53;1610423;87;21149;-68
2022/02/21 00:05:22;;;;;;;12.88;9.50;;;;;;;1.04;100.00;98552.17;1635330;87;21509;-70
2022/02/21 00:07:50;;;;;;;11.25;8.65;;;;;;;1.05;100.00;98552.98;1633251;87;20953;-69
2022/02/21 00:10:18;;;;;;;6.83;6.22;;;;;;;1.11;100.00;98552.13;1634079;87;21075;-69
2022/02/21 00:12:45;;;;;;;15.50;7.95;;;;;;;1.15;100.00;98562.58;1679734;84;21063;-69
2022/02/21 00:15:15;;;;;;;10.30;9.15;;;;;;;1.18;100.00;98562.65;1640217;85;21163;-69
2022/02/21 00:17:42;;;;;;;11.00;9.00;;;;;;;1.21;100.00;98563.53;1644838;86;21599;-70
2022/02/21 00:20:10;;;;;;;16.77;7.60;;;;;;;1.15;100.00;98555.13;1607655;86;21060;-69
2022/02/21 00:22:36;;;;;;;;;;;;;;;1.09;100.00;98548.08;1641909;85;21071;-69
2022/02/21 00:25:05;;;;;;;14.85;11.20;;;;;;;1.03;100.00;98549.77;1607521;88;20093;-68
2022/02/21 00:27:32;;;;;;;15.00;11.75;;;;;;;0.94;100.00;98541.29;1612493;86;21496;-69
2022/02/21 00:30:01;;;;;;;17.95;13.95;;;;;;;0.92;100.00;98540.69;1673268;84;21042;-68
2022/02/21 00:32:28;;;;;;;15.63;10.90;;;;;;;0.85;100.00;98547.34;1693266;84;21236;-69
2022/02/21 00:34:54;;;;;;;11.15;9.33;;;;;;;0.79;100.00;98542.12;1687302;83;21634;-69
2022/02/21 00:37:21;;;;;;;15.93;10.85;;;;;;;0.77;100.00;98541.53;1693295;84;21077;-71
2022/02/21 00:39:56;;;;;;;13.05;10.35;;;;;;;0.72;100.00;98541.37;1680014;84;21140;-70
2022/02/21 00:42:24;;;;;;;15.40;10.00;;;;;;;0.60;100.00;98542.05;1691221;82;21600;-68
2022/02/21 00:44:56;;;;;;;16.85;11.08;;;;;;;0.53;100.00;98532.55;1665924;84;21022;-69
2022/02/21 00:47:24;;;;;;;17.55;11.80;;;;;;;0.47;100.00;98534.23;1654761;86;21054;-70
2022/02/21 00:49:52;;;;;;;18.42;10.95;;;;;;;0.39;100.00;98526.05;1638087;86;21798;-69
2022/02/21 00:52:21;;;;;;;;;;;;;;;0.36;100.00;98530.94;1641029;86;21809;-69
2022/02/21 00:54:48;;;;;;;13.20;9.43;;;;;;;0.27;100.00;98515.88;1640095;87;22058;-69
2022/02/21 00:57:16;;;;;;;14.78;9.85;;;;;;;0.24;100.00;98520.23;1636214;87;27974;-68
2022/02/21 00:59:44;;;;;;;13.30;10.23;;;;;;;0.24;100.00;98520.75;1636855;87;21019;-69
2022/02/21 01:02:11;;;;;;;12.05;10.25;;;;;;;0.28;100.00;98518.00;1675173;84;21127;-68
2022/02/21 01:04:38;;;;;;;14.80;10.32;;;;;;;0.24;100.00;98520.75;1691094;84;21502;-69
2022/02/21 01:07:06;;;;;;;13.20;9.53;;;;;;;0.20;100.00;98519.87;1645031;85;20935;-68
2022/02/21 01:09:35;;;;;;;20.23;11.22;;;;;;;0.12;100.00;98514.84;1648236;85;21044;-69
2022/02/21 01:12:06;;;;;;;13.40;10.15;;;;;;;0.06;100.00;98503.80;1632690;87;21094;-69
2022/02/21 01:14:32;;;;;;;20.60;13.72;;;;;;;0.04;100.00;98501.88;1620628;87;27535;-70
2022/02/21 01:16:59;;;;;;;14.80;11.20;;;;;;;0.05;100.00;98496.92;1616451;86;21112;-69
2022/02/21 01:19:25;;;;;;;19.77;12.98;;;;;;;0.04;100.00;98495.80;1643596;84;20905;-69
2022/02/21 01:21:52;;;;;;;18.67;13.00;;;;;;;-0.02;100.00;98490.35;1673809;84;21105;-69
2022/02/21 01:24:18;;;;;;;19.55;12.53;;;;;;;-0.08;100.00;98485.10;1667575;84;21083;-68
2022/02/21 01:26:45;;;;;;;18.92;10.70;;;;;;;-0.09;100.00;98476.39;1671447;83;21122;-70
2022/02/21 01:29:11;;;;;;;18.25;12.90;;;;;;;-0.09;100.00;98472.94;1664846;84;21119;-70
2022/02/21 01:31:37;;;;;;;35.58;25.43;;;;;;;-0.10;100.00;98473.95;1675070;83;20949;-70
2022/02/21 01:34:04;;;;;;;40.20;27.87;;;;;;;-0.09;100.00;98478.22;1678951;84;21063;-69
2022/02/21 01:36:31;;;;;;;15.35;12.10;;;;;;;-0.15;100.00;98472.45;1672268;84;20999;-69
2022/02/21 01:38:57;;;;;;;30.10;18.73;;;;;;;-0.24;100.00;98475.34;1658863;84;20948;-69
2022/02/21 01:41:24;;;;;;;27.45;19.30;;;;;;;-0.29;100.00;98467.25;1664445;84;21166;-69
2022/02/21 01:44:06;;;;;;;17.92;12.60;;;;;;;-0.32;100.00;98464.22;1679344;84;20996;-69
2022/02/21 01:46:33;;;;;;;13.72;10.88;;;;;;;-0.36;100.00;98459.88;1679712;83;21016;-70
2022/02/21 01:48:59;;;;;;;20.00;15.00;;;;;;;-0.30;100.00;98459.03;1674532;84;21007;-70
2022/02/21 01:51:26;;;;;;;19.75;15.23;;;;;;;-0.26;100.00;98453.64;1670553;84;20993;-70
2022/02/21 01:53:57;;;;;;;19.55;15.63;;;;;;;-0.27;100.00;98448.08;1648925;85;21115;-69
2022/02/21 01:56:24;;;;;;;23.22;14.00;;;;;;;-0.26;100.00;98439.66;1661505;84;21063;-70
2022/02/21 01:58:50;;;;;;;35.55;24.25;;;;;;;-0.26;100.00;98439.14;1655580;84;21602;-70
2022/02/21 02:01:17;;;;;;;34.33;23.85;;;;;;;-0.19;100.00;98429.08;1649935;84;21034;-70
2022/02/21 02:03:46;;;;;;;35.35;24.37;;;;;;;-0.19;100.00;98434.35;1665849;84;21209;-70
2022/02/21 02:06:13;;;;;;;37.97;25.67;;;;;;;-0.21;100.00;98434.55;1668858;84;21230;-70
2022/02/21 02:08:39;;;;;;;26.73;19.75;;;;;;;-0.24;100.00;98432.34;1654564;85;21059;-70
2022/02/21 02:11:06;;;;;;;19.27;13.68;;;;;;;-0.29;100.00;98434.81;1679172;84;21037;-68
2022/02/21 02:13:33;;;;;;;15.05;9.55;;;;;;;-0.28;100.00;98422.71;1661629;84;21017;-69
2022/02/21 02:16:00;;;;;;;21.10;14.60;;;;;;;-0.29;100.00;98413.72;1650654;85;21103;-69
2022/02/21 02:18:26;;;;;;;14.58;11.30;;;;;;;-0.25;100.00;98413.57;1674144;84;21131;-70
2022/02/21 02:20:53;;;;;;;16.75;11.63;;;;;;;-0.25;100.00;98415.69;1682917;84;21012;-69
2022/02/21 02:23:20;;;;;;;19.92;11.12;;;;;;;-0.30;100.00;98402.33;1674647;84;21119;-71
2022/02/21 02:25:48;;;;;;;23.25;13.22;;;;;;;-0.31;100.00;98401.25;1656855;84;20964;-69
2022/02/21 02:28:14;;;;;;;26.93;14.85;;;;;;;-0.29;100.00;98405.29;1671790;84;21087;-69
2022/02/21 02:30:41;;;;;;;23.92;16.82;;;;;;;-0.30;100.00;98402.84;1672460;84;21153;-70
2022/02/21 02:33:07;;;;;;;24.05;12.28;;;;;;;-0.33;100.00;98398.81;1648534;84;21032;-70
2022/02/21 02:35:34;;;;;;;63.25;39.55;;;;;;;-0.36;100.00;98412.94;1655073;85;21489;-69
2022/02/21 02:38:02;;;;;;;33.83;24.18;;;;;;;-0.35;100.00;98418.50;1659444;84;21054;-70
2022/02/21 02:40:29;;;;;;;32.48;21.20;;;;;;;-0.37;100.00;98425.29;1649679;85;21003;-70
2022/02/21 02:42:56;;;;;;;42.95;29.15;;;;;;;-0.39;100.00;98422.08;1654818;84;21220;-70
2022/02/21 02:45:22;;;;;;;39.83;24.92;;;;;;;-0.40;100.00;98423.59;1658098;84;21091;-70
2022/02/21 02:47:49;;;;;;;26.95;19.82;;;;;;;-0.45;100.00;98421.59;1634020;84;20960;-69
2022/02/21 02:50:15;;;;;;;10.93;8.88;;;;;;;-0.46;100.00;98414.71;1604890;87;21035;-69
2022/02/21 02:52:42;;;;;;;14.55;9.38;;;;;;;-0.41;100.00;98416.20;1615821;86;21131;-70
2022/02/21 02:55:10;;;;;;;11.28;9.50;;;;;;;-0.27;100.00;98411.65;1623686;86;21167;-69
2022/02/21 02:57:37;;;;;;;15.40;10.08;;;;;;;-0.22;100.00;98402.10;1654680;85;20975;-70
2022/02/21 03:00:06;;;;;;;14.65;10.93;;;;;;;-0.16;100.00;98405.71;1668095;84;21237;-70
2022/02/21 03:02:35;;;;;;;15.75;12.90;;;;;;;-0.13;100.00;98393.92;1648042;85;21451;-69
2022/02/21 03:05:01;;;;;;;14.68;10.50;;;;;;;-0.11;100.00;98397.16;1661090;84;21066;-69
2022/02/21 03:07:28;;;;;;;18.10;13.00;;;;;;;-0.12;100.00;98382.34;1657173;84;21181;-69
2022/02/21 03:09:54;;;;;;;17.62;11.12;;;;;;;-0.08;100.00;98386.19;1678134;84;21028;-70
2022/02/21 03:12:21;;;;;;;8.33;7.47;;;;;;;-0.07;100.00;98379.91;1673353;84;21588;-71
2022/02/21 03:14:48;;;;;;;12.18;10.55;;;;;;;-0.04;100.00;98372.36;1660752;82;21147;-70
2022/02/21 03:17:14;;;;;;;14.25;10.82;;;;;;;-0.02;100.00;98371.64;1677455;84;21521;-70
2022/02/21 03:19:41;;;;;;;13.13;9.45;;;;;;;0.03;100.00;98367.04;1686237;83;21117;-72
2022/02/21 03:22:07;;;;;;;17.07;10.88;;;;;;;0.06;100.00;98358.69;1679632;84;20996;-69
2022/02/21 03:24:34;;;;;;;12.75;8.93;;;;;;;0.11;100.00;98356.20;1663191;84;20928;-70
2022/02/21 03:27:00;;;;;;;15.40;10.20;;;;;;;0.15;100.00;98356.60;1657450;85;21745;-71
2022/02/21 03:29:27;;;;;;;14.07;10.00;;;;;;;0.19;100.00;98353.29;1665052;84;21529;-69
2022/02/21 03:31:53;;;;;;;18.27;11.35;;;;;;;0.24;100.00;98351.84;1679327;82;21160;-69
2022/02/21 03:34:20;;;;;;;18.40;10.90;;;;;;;0.29;100.00;98346.20;1663956;84;21612;-70
2022/02/21 03:36:46;;;;;;;11.68;8.48;;;;;;;0.33;100.00;98343.95;1663874;84;21544;-70
2022/02/21 03:39:13;;;;;;;12.33;10.82;;;;;;;0.37;100.00;98334.07;1669700;84;21019;-69
2022/02/21 03:41:39;;;;;;;9.88;8.68;;;;;;;0.44;100.00;98335.30;1664877;84;21027;-70
2022/02/21 03:44:06;;;;;;;14.05;8.15;;;;;;;0.46;100.00;98333.26;1660717;85;21255;-69
2022/02/21 03:46:32;;;;;;;13.95;8.38;;;;;;;0.50;100.00;98323.89;1672001;84;21077;-69
2022/02/21 03:48:59;;;;;;;13.32;10.35;;;;;;;0.57;100.00;98328.59;1676634;84;21185;-70
2022/02/21 03:51:25;;;;;;;14.78;11.03;;;;;;;0.59;100.00;98326.55;1677477;83;21130;-70
2022/02/21 03:53:52;;;;;;;11.50;8.73;;;;;;;0.61;100.00;98324.50;1628909;85;21686;-69
2022/02/21 03:56:18;;;;;;;9.43;8.35;;;;;;;0.63;100.00;98317.13;1682595;84;21080;-69
2022/02/21 03:58:45;;;;;;;14.33;9.63;;;;;;;0.64;100.00;98306.88;1655862;84;21058;-70
2022/02/21 04:01:14;;;;;;;9.70;7.65;;;;;;;0.64;100.00;98312.17;1674273;84;20940;-69
2022/02/21 04:03:40;;;;;;;13.28;10.05;;;;;;;0.68;100.00;98295.35;1655484;84;20980;-70
2022/02/21 04:06:07;;;;;;;10.23;8.60;;;;;;;0.73;100.00;98307.91;1659246;84;21064;-70
2022/02/21 04:08:33;;;;;;;19.98;15.70;;;;;;;0.73;100.00;98300.78;1661356;84;21149;-70
2022/02/21 04:11:00;;;;;;;12.60;10.05;;;;;;;0.77;100.00;98299.84;1679053;84;21106;-68
2022/02/21 04:13:28;;;;;;;18.35;10.90;;;;;;;0.85;100.00;98308.25;1640384;84;21057;-69
2022/02/21 04:15:55;;;;;;;27.32;16.77;;;;;;;0.90;100.00;98295.70;1677933;84;21537;-69
2022/02/21 04:18:22;;;;;;;21.45;12.85;;;;;;;0.95;100.00;98299.01;1678789;84;21007;-70
2022/02/21 04:20:48;;;;;;;23.77;15.75;;;;;;;0.94;100.00;98295.56;1662901;84;22646;-70
2022/02/21 04:23:15;;;;;;;13.62;10.50;;;;;;;1.02;100.00;98290.48;1666433;84;21083;-70
2022/02/21 04:25:41;;;;;;;19.42;12.30;;;;;;;1.05;100.00;98284.75;1654308;85;21055;-70
2022/02/21 04:28:08;;;;;;;13.55;8.40;;;;;;;1.12;100.00;98287.31;1658437;84;20988;-69
2022/02/21 04:30:34;;;;;;;28.38;18.27;;;;;;;1.13;100.00;98277.85;1669850;84;21021;-69
2022/02/21 04:33:01;;;;;;;18.00;13.18;;;;;;;1.19;100.00;98282.75;1656514;84;21090;-70
2022/02/21 04:35:27;;;;;;;13.80;10.10;;;;;;;1.25;100.00;98285.31;1654947;85;21068;-70
2022/02/21 04:37:54;;;;;;;15.38;10.68;;;;;;;1.29;100.00;98286.45;1675035;84;20933;-72
2022/02/21 04:40:24;;;;;;;23.62;12.95;;;;;;;1.35;100.00;98270.23;1666230;84;21044;-69
2022/02/21 04:42:53;;;;;;;17.02;11.38;;;;;;;1.36;100.00;98267.87;1662318;84;21909;-70
2022/02/21 04:45:22;;;;;;;;;;;;;;;1.41;100.00;98268.52;1675242;83;21203;-70
2022/02/21 04:47:49;;;;;;;18.07;10.23;;;;;;;1.46;100.00;98256.74;1643473;85;20320;-69
2022/02/21 04:50:15;;;;;;;22.22;12.73;;;;;;;1.49;100.00;98253.64;1635001;85;21124;-68
2022/02/21 04:52:44;;;;;;;15.60;10.43;;;;;;;1.53;100.00;98265.91;1644699;86;20997;-69
2022/02/21 04:55:12;;;;;;;24.50;13.48;;;;;;;1.55;100.00;98261.20;1638229;85;20984;-70
2022/02/21 04:57:39;;;;;;;;;;;;;;;1.59;100.00;98256.53;1636009;86;21137;-70
2022/02/21 05:00:09;;;;;;;13.72;9.30;;;;;;;1.66;100.00;98265.17;1630888;87;20129;-69
2022/02/21 05:02:36;;;;;;;12.18;8.58;;;;;;;1.67;100.00;98254.09;1641551;85;21037;-69
2022/02/21 05:05:03;;;;;;;13.20;9.70;;;;;;;1.71;100.00;98247.30;1626281;86;21013;-70
2022/02/21 05:07:32;;;;;;;15.38;11.60;;;;;;;1.75;100.00;98253.75;1641773;86;26866;-69
2022/02/21 05:09:59;;;;;;;17.82;13.10;;;;;;;1.80;100.00;98239.32;1644161;85;21201;-69
2022/02/21 05:12:25;;;;;;;16.85;9.25;;;;;;;1.82;100.00;98241.23;1670690;84;21056;-69
2022/02/21 05:14:52;;;;;;;13.45;9.75;;;;;;;1.84;100.00;98231.22;1687800;83;21004;-70
2022/02/21 05:17:19;;;;;;;17.42;11.08;;;;;;;1.87;100.00;98236.05;1684245;84;21035;-70
2022/02/21 05:19:47;;;;;;;17.62;12.75;;;;;;;1.91;100.00;98229.77;1689940;84;20937;-69
2022/02/21 05:22:13;;;;;;;16.35;10.63;;;;;;;1.92;100.00;98231.39;1682296;85;21149;-69
2022/02/21 05:24:40;;;;;;;244.90;127.25;;;;;;;1.98;100.00;98225.17;1673207;84;20900;-69
2022/02/21 05:27:07;;;;;;;19.50;12.43;;;;;;;1.99;100.00;98224.15;1685999;84;20992;-70
2022/02/21 05:29:36;;;;;;;63.80;30.92;;;;;;;2.00;100.00;98228.39;1683932;84;20984;-69
2022/02/21 05:32:05;;;;;;;18.05;11.68;;;;;;;2.03;100.00;98223.95;1696120;83;21084;-69
2022/02/21 05:34:31;;;;;;;18.52;11.63;;;;;;;2.06;100.00;98231.45;1683965;84;21145;-69
2022/02/21 05:36:58;;;;;;;25.80;19.23;;;;;;;2.08;100.00;98223.27;1682553;84;20938;-70
2022/02/21 05:39:24;;;;;;;22.73;16.95;;;;;;;2.13;100.00;98222.88;1687700;84;21155;-71
2022/02/21 05:41:51;;;;;;;22.02;10.93;;;;;;;2.18;100.00;98227.48;1684029;82;21028;-70
2022/02/21 05:44:17;;;;;;;24.23;10.35;;;;;;;2.18;100.00;98228.81;1668340;83;21237;-68
2022/02/21 05:46:44;;;;;;;47.60;24.77;;;;;;;2.22;100.00;98228.61;1664196;84;21149;-70
2022/02/21 05:49:12;;;;;;;33.90;18.17;;;;;;;2.25;100.00;98231.31;1690297;84;21031;-71
2022/02/21 05:51:40;;;;;;;43.23;18.15;;;;;;;2.24;100.00;98223.09;1679803;84;21112;-70
2022/02/21 05:54:08;;;;;;;25.32;15.43;;;;;;;2.28;100.00;98211.81;1638055;85;21005;-67
2022/02/21 05:56:35;;;;;;;31.87;19.73;;;;;;;2.34;100.00;98219.34;1628631;87;21064;-69
2022/02/21 05:59:02;;;;;;;25.25;14.80;;;;;;;2.36;100.00;98217.27;1624296;86;21555;-70
2022/02/21 06:01:31;;;;;;;14.50;8.43;;;;;;;2.40;100.00;98201.70;1640443;85;20965;-70
2022/02/21 06:03:59;;;;;;;14.15;8.98;;;;;;;2.49;100.00;98203.75;1651929;85;21047;-69
2022/02/21 06:06:27;;;;;;;14.90;9.98;;;;;;;2.54;100.00;98211.00;1621918;86;21078;-72
2022/02/21 06:08:54;;;;;;;14.05;10.58;;;;;;;2.55;100.00;98204.16;1634631;85;21075;-70
2022/02/21 06:11:29;;;;;;;33.40;21.57;;;;;;;2.61;100.00;98197.63;1663496;84;21187;-71
2022/02/21 06:13:55;;;;;;;16.30;11.60;;;;;;;2.62;100.00;98190.78;1674191;84;21426;-71
2022/02/21 06:16:24;;;;;;;11.30;8.75;;;;;;;2.65;100.00;98196.93;1627630;86;21130;-76
2022/02/21 06:18:51;;;;;;;13.58;8.95;;;;;;;2.68;100.00;98195.13;1664514;84;21028;-71
2022/02/21 06:21:17;;;;;;;10.63;8.53;;;;;;;2.74;100.00;98187.58;1667227;84;21079;-69
2022/02/21 06:23:45;;;;;;;11.57;6.83;;;;;;;2.76;100.00;98193.94;1681483;84;21853;-75
2022/02/21 06:26:12;;;;;;;15.40;9.78;;;;;;;2.79;100.00;98181.54;1644931;85;21098;-72
2022/02/21 06:28:39;;;;;;;15.30;9.63;;;;;;;2.82;100.00;98176.28;1666762;84;21105;-70
2022/02/21 06:31:09;;;;;;;15.85;8.80;;;;;;;2.83;100.00;98189.31;1671896;84;21182;-73
2022/02/21 06:33:36;;;;;;;12.23;10.65;;;;;;;2.87;100.00;98182.50;1681618;84;26968;-70
2022/02/21 06:36:04;;;;;;;8.35;6.95;;;;;;;2.96;100.00;98185.56;1651866;85;21137;-75
2022/02/21 06:38:31;;;;;;;9.48;7.17;;;;;;;2.99;100.00;98179.81;1629191;85;21230;-70
2022/02/21 06:40:59;;;;;;;9.33;6.20;;;;;;;3.07;100.00;98174.11;1638775;85;21106;-69
2022/02/21 06:43:25;;;;;;;6.75;6.05;;;;;;;3.14;100.00;98160.71;1635555;85;21056;-70
2022/02/21 06:45:52;;;;;;;13.53;7.30;;;;;;;3.16;100.00;98181.14;1655437;84;20959;-69
2022/02/21 06:48:22;;;;;;;16.73;8.10;;;;;;;3.22;100.00;98171.71;1678506;84;21154;-70
2022/02/21 06:50:48;;;;;;;16.95;7.50;;;;;;;3.29;100.00;98168.91;1652926;85;21551;-69
2022/02/21 06:53:15;;;;;;;12.28;7.45;;;;;;;3.34;100.00;98165.55;1649294;85;21187;-70
2022/02/21 06:55:42;;;;;;;9.70;7.87;;;;;;;3.38;100.00;98156.05;1655226;86;21120;-68
2022/02/21 06:58:12;;;;;;;9.25;6.75;;;;;;;3.40;100.00;98168.02;1647768;85;21554;-69
2022/02/21 07:00:39;;;;;;;13.18;7.50;;;;;;;3.47;100.00;98147.97;1656418;86;21162;-70
2022/02/21 07:03:09;;;;;;;8.63;6.03;;;;;;;3.51;100.00;98157.59;1662407;83;21027;-70
2022/02/21 07:05:37;;;;;;;9.13;8.15;;;;;;;3.58;100.00;98159.03;1652118;84;21119;-69
2022/02/21 07:08:06;;;;;;;12.00;7.55;;;;;;;3.67;100.00;98166.58;1637799;85;21076;-70
2022/02/21 07:10:34;;;;;;;12.23;7.60;;;;;;;3.72;100.00;98155.50;1672768;85;21005;-70
2022/02/21 07:13:00;;;;;;;7.03;5.67;;;;;;;3.82;100.00;98158.83;1646093;85;22012;-70
2022/02/21 07:15:27;;;;;;;8.33;6.70;;;;;;;3.92;100.00;98150.20;1646902;85;21762;-70
2022/02/21 07:17:54;;;;;;;8.60;6.40;;;;;;;4.02;100.00;98145.86;1621448;85;21086;-70
2022/02/21 07:20:20;;;;;;;12.85;7.92;;;;;;;4.07;100.00;98149.11;1640269;85;21115;-69
2022/02/21 07:22:47;;;;;;;9.93;7.25;;;;;;;4.18;100.00;98150.83;1650533;85;20967;-69
2022/02/21 07:25:16;;;;;;;6.53;5.67;;;;;;;4.23;100.00;98160.71;1655477;85;21092;-70
2022/02/21 07:27:44;;;;;;;12.80;9.00;;;;;;;4.27;100.00;98159.98;1650427;85;21011;-70
2022/02/21 07:30:13;;;;;;;8.08;6.25;;;;;;;4.34;100.00;98157.67;1635381;85;21038;-70
2022/02/21 07:35:25;;;;;;;7.00;6.30;;;;;;;4.37;100.00;98150.53;1635957;85;21126;-66
2022/02/21 07:37:58;;;;;;;11.55;7.42;;;;;;;4.37;100.00;98137.25;1589705;88;21413;-65
2022/02/21 07:40:39;;;;;;;;;;;;;;;4.42;100.00;98138.11;1615914;86;21509;-67
2022/02/21 07:43:06;;;;;;;12.60;6.60;;;;;;;4.46;100.00;98126.47;1584151;88;20145;-68
2022/02/21 07:45:37;;;;;;;12.90;8.78;;;;;;;4.49;100.00;98125.44;1608106;86;21136;-67
2022/02/21 07:48:06;;;;;;;12.47;6.55;;;;;;;4.59;100.00;98133.25;1610019;86;21011;-66
2022/02/21 07:50:35;;;;;;;8.43;5.58;;;;;;;4.65;100.00;98113.09;1606200;87;21139;-66
2022/02/21 07:53:08;;;;;;;6.37;5.62;;;;;;;4.73;100.00;98119.84;1621562;87;20993;-65
2022/02/21 07:55:35;;;;;;;8.70;6.03;;;;;;;4.82;100.00;98112.20;1580739;88;21098;-66
2022/02/21 07:58:03;;;;;;;8.50;6.60;;;;;;;4.92;100.00;98114.45;1629347;87;21350;-66
2022/02/21 08:03:24;;;;;;;10.58;8.33;;;;;;;5.12;100.00;98079.75;1646029;87;21127;-67
2022/02/21 08:06:44;;;;;;;11.75;8.40;;;;;;;5.22;100.00;98114.94;1586039;89;21165;-66
2022/02/21 08:09:23;;;;;;;11.53;7.05;;;;;;;5.37;100.00;98103.91;1598654;89;21185;-67
2022/02/21 08:11:51;;;;;;;5.67;5.15;;;;;;;5.43;97.26;98099.41;1526380;91;21643;-67
2022/02/21 08:14:18;;;;;;;12.68;7.17;;;;;;;5.55;95.34;98042.01;1541396;91;21514;-68
2022/02/21 08:16:50;;;;;;;6.55;5.08;;;;;;;5.60;94.25;98084.62;1570316;90;21798;-67
2022/02/21 08:19:17;;;;;;;6.53;5.20;;;;;;;5.74;92.74;98076.45;1576536;89;21095;-67
2022/02/21 08:28:46;;;;;;;;;;;;;;;;;;;;;
2022/02/21 08:31:37;;;;;;;8.58;5.35;;;;;;;7.02;78.60;98040.83;1535987;91;20931;-67
2022/02/21 08:34:21;;;;;;;;;;;;;;;;;;;;;
2022/02/21 08:37:11;;;;;;;10.08;5.65;;;;;;;7.60;75.17;98047.17;1536252;90;21118;-67
2022/02/21 08:40:01;;;;;;;8.33;5.30;;;;;;;7.38;74.42;98060.03;1575791;88;21095;-66
2022/02/21 08:42:50;;;;;;;;;;;;;;;;;;;;;
2022/02/21 08:45:23;;;;;;;;;;;;;;;;;;;;;
2022/02/21 08:48:15;;;;;;;25.27;18.82;;;;;;;6.89;75.02;98009.91;1482387;96;21161;-67
2022/02/21 08:50:58;;;;;;;;;;;;;;;;;;;;;
2022/02/21 08:53:40;;;;;;;16.25;11.33;;;;;;;6.77;79.08;98073.63;1465721;94;20215;-66
2022/02/21 08:56:32;;;;;;;;;;;;;;;;;;;;;
2022/02/21 08:59:04;;;;;;;15.63;11.97;;;;;;;6.65;80.45;98061.08;1470625;93;21086;-66
2022/02/21 09:04:57;;;;;;;6.90;5.67;;;;;;;6.57;79.12;98055.73;1541097;92;21555;-66
2022/02/21 09:08:16;;;;;;;9.53;7.15;;;;;;;6.58;80.60;98059.20;1483257;95;21610;-66
2022/02/21 09:11:05;;;;;;;13.38;9.20;;;;;;;6.46;80.78;98061.31;1436153;98;21041;-68
2022/02/21 09:14:04;;;;;;;6.00;5.45;;;;;;;6.60;82.10;98059.20;1413208;99;21181;-67
2022/02/21 09:16:41;;;;;;;12.13;7.25;;;;;;;6.67;80.36;98035.50;1378394;101;20995;-68
2022/02/21 09:22:02;;;;;;;7.47;5.97;;;;;;;6.77;81.28;98047.50;1385869;102;21151;-69
2022/02/21 09:24:54;;;;;;;;;;;;;;;;;;;;;
2022/02/21 09:27:45;;;;;;;5.35;4.83;;;;;;;6.77;80.17;98040.84;1328186;106;21131;-67
2022/02/21 09:30:53;;;;;;;;;;;;;;;;;;;;;
2022/02/21 09:33:17;;;;;;;6.05;5.00;;;;;;;6.90;79.41;98040.84;1293251;109;21081;-67
2022/02/21 09:39:17;;;;;;;;;;;;;;;;;;;;;
2022/02/21 09:43:29;;;;;;;;;;;;;;;;;;;;;
2022/02/21 09:46:24;;;;;;;;;;;;;;;;;;;;;
2022/02/21 09:49:16;;;;;;;;;;;;;;;;;;;;;
2022/02/21 10:02:10;;;;;;;;;;;;;;;;;;;;;
2022/02/21 10:05:28;;;;;;;;;;;;;;;;;;;;;
2022/02/21 10:14:00;;;;;;;;;;;;;;;;;;;;;
2022/02/21 10:50:21;;;;;;;9.58;5.22;;;;;;;7.14;85.48;97964.52;1393963;98;99067;-72
2022/02/21 10:52:48;;;;;;;6.35;5.33;;;;;;;7.09;85.14;97956.53;1425939;99;21529;-71
2022/02/21 10:55:15;;;;;;;6.50;5.67;;;;;;;7.00;85.77;97967.47;1412941;100;22531;-70
2022/02/21 10:57:44;;;;;;;11.12;6.17;;;;;;;7.03;85.88;97965.59;1391181;101;21110;-72
2022/02/21 11:00:13;;;;;;;8.85;5.85;;;;;;;7.03;86.09;97957.59;1435560;97;21552;-71
2022/02/21 11:02:42;;;;;;;7.55;5.72;;;;;;;7.06;85.80;97967.20;1429616;99;21359;-71
2022/02/21 11:05:10;;;;;;;11.73;8.15;;;;;;;7.11;86.21;97969.06;1376709;102;27556;-69
2022/02/21 11:07:44;;;;;;;12.00;5.65;;;;;;;7.19;86.10;97958.37;1411886;100;21625;-69
2022/02/21 11:10:11;;;;;;;5.67;4.62;;;;;;;7.20;84.96;97929.27;1409153;100;21656;-73
2022/02/21 11:12:44;;;;;;;10.13;6.17;;;;;;;7.23;84.80;97946.10;1411781;100;21095;-69
2022/02/21 11:15:11;;;;;;;10.13;6.78;;;;;;;7.31;85.85;97966.88;1404521;100;21170;-71
2022/02/21 11:17:39;;;;;;;;;;;;;;;7.36;84.57;97965.53;1437975;98;21146;-72
2022/02/21 11:20:07;;;;;;;6.80;4.58;;;;;;;7.38;84.89;97952.72;1435727;98;21120;-68
2022/02/21 11:22:36;;;;;;;13.10;6.72;;;;;;;7.44;86.41;97968.97;1409325;100;21190;-73
2022/02/21 11:25:12;;;;;;;6.87;4.85;;;;;;;7.39;86.87;97968.98;1425694;99;21677;-71
2022/02/21 11:27:51;;;;;;;9.08;5.30;;;;;;;7.39;88.79;97971.66;1417230;98;21162;-70
2022/02/21 11:30:21;;;;;;;8.93;5.55;;;;;;;7.34;90.34;97979.68;1402843;101;21058;-69
2022/02/21 11:33:11;;;;;;;9.78;4.70;;;;;;;7.20;97.65;97983.98;1400962;99;21834;-70
2022/02/21 11:35:58;;;;;;;5.60;4.22;;;;;;;7.03;99.30;97964.26;1401606;100;21297;-69
2022/02/21 11:38:29;;;;;;;8.20;5.75;;;;;;;7.05;100.00;97977.59;1404948;100;21206;-71
2022/02/21 11:40:58;;;;;;;6.65;5.08;;;;;;;7.05;100.00;97978.92;1396275;101;21097;-71
2022/02/21 11:43:29;;;;;;;5.78;5.17;;;;;;;7.04;100.00;97972.00;1402558;100;21254;-72
2022/02/21 11:45:58;;;;;;;10.35;8.25;;;;;;;6.90;100.00;97959.48;1404554;99;21298;-70
2022/02/21 11:48:24;;;;;;;8.50;5.53;;;;;;;6.68;100.00;97965.89;1373796;101;21224;-73
2022/02/21 11:51:02;;;;;;;7.47;6.30;;;;;;;6.45;100.00;97964.56;1421483;101;21615;-73
2022/02/21 11:53:30;;;;;;;5.30;4.80;;;;;;;6.28;100.00;97952.81;1405053;99;21178;-73
2022/02/21 11:55:58;;;;;;;7.30;5.42;;;;;;;6.03;100.00;97964.23;1433367;97;21171;-72
2022/02/21 11:58:30;;;;;;;7.95;6.53;;;;;;;5.78;100.00;97950.27;1451264;97;21193;-75
2022/02/21 12:00:56;;;;;;;7.62;5.35;;;;;;;5.66;100.00;97912.42;1423819;99;21190;-72
2022/02/21 12:03:28;;;;;;;10.60;5.78;;;;;;;5.60;100.00;97956.86;1431935;98;21112;-71
2022/02/21 12:06:05;;;;;;;10.10;7.55;;;;;;;5.57;100.00;97956.05;1434504;98;21146;-69
2022/02/21 12:08:39;;;;;;;11.83;6.70;;;;;;;5.57;100.00;97944.88;1411809;98;21072;-70
2022/02/21 12:11:12;;;;;;;13.65;8.20;;;;;;;5.56;100.00;97935.81;1422943;100;21200;-70
2022/02/21 12:13:57;;;;;;;21.10;10.98;;;;;;;5.56;100.00;97940.63;1403224;102;21222;-71
2022/02/21 12:16:24;;;;;;;20.05;11.60;;;;;;;5.53;100.00;97940.33;1438325;98;21129;-71
2022/02/21 12:19:01;;;;;;;17.15;10.82;;;;;;;5.56;100.00;97929.16;1421672;98;21875;-69
2022/02/21 12:21:33;;;;;;;15.58;11.00;;;;;;;5.62;100.00;97930.79;1401271;101;21245;-73
2022/02/21 12:24:06;;;;;;;13.00;10.05;;;;;;;5.64;100.00;97921.22;1446506;97;21182;-72
2022/02/21 12:26:39;;;;;;;14.60;8.70;;;;;;;5.68;100.00;97932.92;1483801;96;21655;-70
2022/02/21 12:29:22;;;;;;;14.47;10.40;;;;;;;5.69;100.00;97902.60;1474902;96;21172;-72
2022/02/21 12:34:16;;;;;;;9.43;7.50;;;;;;;5.78;100.00;97915.65;1446182;98;20958;-70
2022/02/21 12:36:45;;;;;;;13.80;8.85;;;;;;;5.78;100.00;97924.97;1455950;97;22044;-72
2022/02/21 12:39:13;;;;;;;16.30;9.40;;;;;;;5.77;100.00;97922.05;1457044;97;21603;-72
2022/02/21 12:41:42;;;;;;;9.53;6.92;;;;;;;5.77;100.00;97926.05;1436559;97;21077;-73
2022/02/21 12:44:11;;;;;;;12.00;7.78;;;;;;;5.76;100.00;97924.45;1436735;98;21098;-73
2022/02/21 12:46:46;;;;;;;9.38;7.70;;;;;;;5.80;100.00;97907.67;1439611;97;21142;-72
2022/02/21 12:49:38;;;;;;;13.65;8.48;;;;;;;5.76;100.00;97909.27;1457215;97;21602;-72
2022/02/21 12:52:12;;;;;;;9.70;8.53;;;;;;;5.69;100.00;97898.61;1463973;96;21141;-73
2022/02/21 12:55:01;;;;;;;14.75;9.40;;;;;;;5.65;100.00;97920.94;1461397;97;21155;-73
2022/02/21 12:57:31;;;;;;;14.80;9.15;;;;;;;5.67;100.00;97914.03;1454540;96;21194;-71
2022/02/21 12:59:57;;;;;;;9.15;6.20;;;;;;;5.64;100.00;97895.40;1452489;96;21244;-73
2022/02/21 13:02:24;;;;;;;11.20;7.10;;;;;;;5.65;100.00;97885.00;1458457;97;21240;-70
2022/02/21 13:04:50;;;;;;;11.48;8.48;;;;;;;5.62;100.00;97886.87;1463629;96;21730;-71
2022/02/21 13:07:17;;;;;;;11.97;7.45;;;;;;;5.66;100.00;97883.96;1479078;95;21095;-73
2022/02/21 13:09:45;;;;;;;12.85;8.88;;;;;;;5.65;100.00;97894.86;1477883;95;21096;-71
2022/02/21 13:12:19;;;;;;;13.15;7.25;;;;;;;5.66;100.00;97893.28;1477120;95;21130;-71
2022/02/21 13:14:48;;;;;;;14.90;8.40;;;;;;;5.69;100.00;97893.28;1482338;95;21633;-72